createdAt,value
2019-03-10T00:01:16.945Z,20.37
2019-03-10T00:04:14.078Z,17.27
2019-03-10T00:06:48.684Z,16.70
2019-03-10T00:09:53.537Z,18.60
2019-03-10T00:12:28.596Z,18.00
2019-03-10T00:15:00.507Z,15.43
2019-03-10T00:17:31.992Z,13.63
2019-03-10T00:20:05.419Z,14.13
2019-03-10T00:23:30.162Z,21.40
2019-03-10T00:26:04.670Z,17.30
2019-03-10T00:29:24.452Z,17.00
2019-03-10T00:31:14.552Z,13.97
2019-03-10T00:33:51.637Z,16.83
2019-03-10T00:36:31.549Z,16.57
2019-03-10T00:39:59.787Z,14.67
2019-03-10T00:42:48.348Z,17.67
2019-03-10T00:48:53.208Z,23.30
2019-03-10T00:54:40.252Z,15.30
2019-03-10T00:57:57.937Z,15.77
2019-03-10T01:00:34.875Z,17.93
2019-03-10T01:03:05.584Z,15.93
2019-03-10T01:05:40.742Z,17.87
2019-03-10T01:08:11.554Z,14.73
2019-03-10T01:11:22.097Z,17.63
2019-03-10T01:13:55.015Z,14.10
2019-03-10T01:16:33.259Z,14.50
2019-03-10T01:19:07.868Z,14.50
2019-03-10T01:21:42.813Z,15.97
2019-03-10T01:24:14.617Z,13.60
2019-03-10T01:26:53.208Z,13.20
2019-03-10T01:29:24.384Z,14.57
2019-03-10T01:32:46.110Z,18.07
2019-03-10T01:35:23.143Z,18.33
2019-03-10T01:37:57.154Z,13.87
2019-03-10T01:40:30.773Z,12.67
2019-03-10T01:43:05.874Z,18.40
2019-03-10T01:45:38.830Z,18.97
2019-03-10T01:48:08.535Z,8.40
2019-03-10T01:51:34.623Z,14.70
2019-03-10T01:54:07.429Z,11.70
2019-03-10T02:03:04.639Z,13.30
2019-03-10T02:09:49.868Z,13.23
2019-03-10T02:12:23.188Z,20.73
2019-03-10T02:15:40.836Z,8.20
2019-03-10T02:18:15.304Z,8.00
2019-03-10T02:20:47.697Z,15.20
2019-03-10T02:23:52.203Z,13.10
2019-03-10T02:26:24.266Z,13.37
2019-03-10T02:28:56.967Z,6.03
2019-03-10T02:31:31.413Z,8.53
2019-03-10T02:34:05.015Z,12.90
2019-03-10T02:36:40.877Z,10.63
2019-03-10T02:42:04.398Z,9.37
2019-03-10T02:44:35.164Z,10.17
2019-03-10T02:47:54.904Z,7.63
2019-03-10T02:50:28.722Z,11.50
2019-03-10T02:53:02.521Z,14.73
2019-03-10T02:55:42.587Z,12.53
2019-03-10T02:58:11.421Z,7.80
2019-03-10T03:00:45.833Z,12.67
2019-03-10T03:03:18.292Z,6.43
2019-03-10T03:05:50.584Z,15.87
2019-03-10T03:09:06.501Z,11.90
2019-03-10T03:11:39.099Z,10.83
2019-03-10T03:14:11.908Z,8.93
2019-03-10T03:16:43.942Z,16.00
2019-03-10T03:19:17.059Z,7.50
2019-03-10T03:22:02.712Z,12.17
2019-03-10T03:24:35.070Z,10.27
2019-03-10T03:29:58.092Z,9.97
2019-03-10T03:35:46.391Z,11.33
2019-03-10T03:41:28.997Z,13.93
2019-03-10T03:44:31.832Z,23.60
2019-03-10T03:47:03.755Z,16.00
2019-03-10T03:49:36.390Z,15.30
2019-03-10T03:52:14.315Z,10.47
2019-03-10T03:54:47.407Z,10.43
2019-03-10T03:57:19.381Z,7.47
2019-03-10T03:59:51.968Z,9.97
2019-03-10T04:02:26.433Z,8.70
2019-03-10T04:05:22.197Z,10.10
2019-03-10T04:07:53.215Z,11.70
2019-03-10T04:10:24.271Z,14.13
2019-03-10T04:13:36.465Z,7.80
2019-03-10T04:16:13.528Z,13.60
2019-03-10T04:18:44.395Z,12.23
2019-03-10T04:21:23.563Z,14.27
2019-03-10T04:23:56.454Z,13.67
2019-03-10T04:27:13.725Z,17.70
2019-03-10T04:29:43.991Z,12.77
2019-03-10T04:35:07.744Z,10.27
2019-03-10T04:37:40.205Z,14.00
2019-03-10T04:40:52.415Z,11.00
2019-03-10T04:43:27.033Z,7.03
2019-03-10T04:45:56.880Z,8.30
2019-03-10T04:49:14.817Z,13.90
2019-03-10T04:51:44.373Z,11.53
2019-03-10T04:57:01.676Z,12.80
2019-03-10T04:59:31.854Z,8.90
2019-03-10T05:02:10.401Z,12.50
2019-03-10T05:04:42.811Z,10.90
2019-03-10T05:07:13.420Z,14.27
2019-03-10T05:10:26.520Z,10.17
2019-03-10T05:13:00.165Z,10.50
2019-03-10T05:15:32.547Z,11.03
2019-03-10T05:18:09.852Z,10.60
2019-03-10T05:20:44.028Z,11.40
2019-03-10T05:26:21.476Z,11.67
2019-03-10T05:29:34.937Z,10.50
2019-03-10T05:32:09.484Z,11.87
2019-03-10T05:34:41.353Z,14.27
2019-03-10T05:37:16.799Z,11.07
2019-03-10T05:39:47.646Z,9.77
2019-03-10T05:42:54.841Z,9.47
2019-03-10T05:45:25.581Z,8.83
2019-03-10T05:47:58.370Z,15.40
2019-03-10T05:51:12.753Z,10.67
2019-03-10T05:53:41.720Z,11.40
2019-03-10T05:56:10.578Z,11.47
2019-03-10T05:58:45.586Z,8.57
2019-03-10T06:01:14.569Z,6.33
2019-03-10T06:04:10.854Z,5.60
2019-03-10T06:06:39.669Z,5.97
2019-03-10T06:09:10.266Z,3.67
2019-03-10T06:12:15.834Z,4.03
2019-03-10T06:14:44.711Z,3.93
2019-03-10T06:17:56.981Z,2.80
2019-03-10T06:20:26.161Z,3.77
2019-03-10T06:22:55.174Z,5.83
2019-03-10T06:25:24.374Z,3.23
2019-03-10T06:27:54.863Z,2.03
2019-03-10T06:31:08.854Z,4.47
2019-03-10T06:33:37.647Z,2.57
2019-03-10T06:36:48.740Z,3.50
2019-03-10T06:39:17.752Z,2.20
2019-03-10T06:41:46.709Z,2.63
2019-03-10T06:45:07.093Z,3.83
2019-03-10T06:47:35.987Z,1.10
2019-03-10T06:50:38.221Z,1.47
2019-03-10T06:53:07.071Z,0.90
2019-03-10T06:56:15.261Z,1.17
2019-03-10T06:58:44.343Z,1.87
2019-03-10T07:01:13.451Z,0.43
2019-03-10T07:04:15.556Z,0.83
2019-03-10T07:06:46.923Z,0.80
2019-03-10T07:09:51.721Z,0.70
2019-03-10T07:12:21.554Z,0.83
2019-03-10T07:14:53.967Z,0.70
2019-03-10T07:17:37.202Z,0.63
2019-03-10T07:20:09.326Z,0.70
2019-03-10T07:23:18.607Z,0.50
2019-03-10T07:26:11.709Z,0.70
2019-03-10T07:29:07.275Z,0.53
2019-03-10T07:31:38.331Z,0.93
2019-03-10T07:35:04.076Z,1.20
2019-03-10T07:37:52.321Z,0.60
2019-03-10T07:43:34.273Z,1.13
2019-03-10T07:46:06.830Z,0.63
2019-03-10T07:48:48.796Z,0.50
2019-03-10T07:51:23.182Z,0.47
2019-03-10T07:57:07.003Z,0.50
2019-03-10T08:00:30.102Z,0.73
2019-03-10T08:03:36.233Z,0.57
2019-03-10T08:06:10.806Z,0.40
2019-03-10T08:09:03.903Z,0.40
2019-03-10T08:14:51.694Z,0.50
2019-03-10T08:20:25.425Z,0.40
2019-03-10T08:23:54.419Z,1.60
2019-03-10T08:26:35.200Z,0.53
2019-03-10T08:29:46.204Z,0.80
2019-03-10T08:32:24.274Z,1.87
2019-03-10T08:35:24.000Z,0.60
2019-03-10T08:38:02.160Z,0.77
2019-03-10T08:41:25.552Z,0.50
2019-03-10T08:44:12.752Z,0.30
2019-03-10T08:46:57.408Z,0.50
2019-03-10T08:49:30.786Z,0.53
2019-03-10T08:52:04.124Z,0.40
2019-03-10T08:54:37.200Z,0.50
2019-03-10T08:57:12.141Z,2.13
2019-03-10T09:00:37.385Z,1.53
2019-03-10T09:03:18.455Z,1.47
2019-03-10T09:06:01.344Z,0.63
2019-03-10T09:08:51.591Z,1.50
2019-03-10T09:11:44.776Z,1.03
2019-03-10T09:14:32.468Z,3.07
2019-03-10T09:17:59.906Z,1.97
2019-03-10T09:20:41.271Z,1.90
2019-03-10T09:23:28.989Z,2.10
2019-03-10T09:26:20.399Z,2.07
2019-03-10T09:32:10.592Z,2.67
2019-03-10T09:37:36.927Z,0.93
2019-03-10T09:40:44.344Z,2.00
2019-03-10T09:43:28.739Z,2.60
2019-03-10T09:46:33.343Z,1.23
2019-03-10T09:49:05.367Z,3.10
2019-03-10T09:52:14.142Z,5.13
2019-03-10T09:55:05.195Z,2.43
2019-03-10T09:58:31.193Z,4.00
2019-03-10T10:01:15.749Z,4.57
2019-03-10T10:04:41.136Z,3.43
2019-03-10T10:07:12.765Z,3.83
2019-03-10T10:10:31.464Z,4.17
2019-03-10T10:13:12.559Z,3.27
2019-03-10T10:16:10.956Z,7.60
2019-03-10T10:18:50.871Z,6.50
2019-03-10T10:22:02.339Z,6.17
2019-03-10T10:24:42.537Z,3.97
2019-03-10T10:27:26.031Z,7.70
2019-03-10T10:29:56.531Z,3.93
2019-03-10T10:32:34.960Z,4.80
2019-03-10T10:35:13.246Z,10.53
2019-03-10T10:40:29.970Z,7.93
2019-03-10T10:43:04.456Z,7.20
2019-03-10T10:46:12.035Z,8.80
2019-03-10T10:48:44.987Z,6.03
2019-03-10T10:54:19.420Z,3.23
2019-03-10T10:57:41.062Z,9.07
2019-03-10T11:00:29.427Z,4.87
2019-03-10T11:03:32.515Z,8.50
2019-03-10T11:06:09.455Z,6.33
2019-03-10T11:11:45.494Z,6.57
2019-03-10T11:15:11.500Z,8.43
2019-03-10T11:17:50.738Z,10.27
2019-03-10T11:21:09.197Z,7.83
2019-03-10T11:23:39.646Z,12.03
2019-03-10T11:27:06.100Z,7.57
2019-03-10T11:29:40.641Z,8.57
2019-03-10T11:32:14.125Z,6.30
2019-03-10T11:34:47.192Z,5.33
2019-03-10T11:37:32.997Z,4.03
2019-03-10T11:40:03.773Z,5.33
2019-03-10T11:42:44.585Z,6.60
2019-03-10T11:45:35.699Z,7.70
2019-03-10T11:48:10.407Z,5.33
2019-03-10T11:50:50.214Z,7.27
2019-03-10T11:53:28.601Z,8.37
2019-03-10T11:56:01.719Z,8.67
2019-03-10T11:58:38.790Z,9.23
2019-03-10T12:01:26.667Z,7.57
2019-03-10T12:03:57.709Z,12.00
2019-03-10T12:06:34.198Z,8.23
2019-03-10T12:09:07.392Z,13.87
2019-03-10T12:11:36.627Z,11.23
2019-03-10T12:14:05.545Z,10.17
2019-03-10T12:16:34.417Z,14.90
2019-03-10T12:19:04.331Z,14.13
2019-03-10T12:21:49.870Z,15.23
2019-03-10T12:24:21.800Z,12.57
2019-03-10T12:26:51.045Z,13.57
2019-03-10T12:29:24.361Z,15.77
2019-03-10T12:31:59.684Z,11.47
2019-03-10T12:34:31.924Z,11.03
2019-03-10T12:37:01.327Z,7.63
2019-03-10T12:39:32.607Z,9.67
2019-03-10T12:42:03.352Z,9.27
2019-03-10T12:45:01.128Z,9.40
2019-03-10T12:47:40.188Z,9.63
2019-03-10T12:50:15.679Z,8.97
2019-03-10T12:52:48.146Z,10.67
2019-03-10T12:55:21.559Z,6.23
2019-03-10T12:58:05.193Z,10.83
2019-03-10T13:00:28.186Z,9.93
2019-03-10T13:03:02.585Z,8.33
2019-03-10T13:05:33.021Z,11.23
2019-03-10T13:08:11.095Z,9.70
2019-03-10T13:10:46.215Z,13.37
2019-03-10T13:13:22.473Z,10.80
2019-03-10T13:15:58.712Z,8.87
2019-03-10T13:18:28.942Z,10.63
2019-03-10T13:21:06.620Z,9.97
2019-03-10T13:23:37.366Z,5.10
2019-03-10T13:26:08.524Z,9.50
2019-03-10T13:28:44.621Z,10.33
2019-03-10T13:31:15.150Z,5.13
2019-03-10T13:33:45.771Z,7.73
2019-03-10T13:36:17.331Z,5.47
2019-03-10T13:38:47.894Z,7.90
2019-03-10T13:41:18.565Z,8.50
2019-03-10T13:43:51.330Z,9.87
2019-03-10T13:46:24.029Z,8.20
2019-03-10T13:48:57.369Z,7.00
2019-03-10T13:51:29.078Z,7.70
2019-03-10T13:54:03.593Z,5.20
2019-03-10T13:56:36.614Z,8.83
2019-03-10T13:59:16.388Z,8.30
2019-03-10T14:02:03.094Z,5.37
2019-03-10T14:04:38.257Z,7.83
2019-03-10T14:07:11.654Z,5.07
2019-03-10T14:09:50.310Z,4.67
2019-03-10T14:12:24.694Z,4.27
2019-03-10T14:15:02.281Z,3.33
2019-03-10T14:17:33.770Z,5.93
2019-03-10T14:20:04.231Z,4.80
2019-03-10T14:22:33.714Z,7.50
2019-03-10T14:25:54.780Z,2.47
2019-03-10T14:28:23.804Z,4.57
2019-03-10T14:31:27.501Z,5.30
2019-03-10T14:34:03.874Z,4.33
2019-03-10T14:37:03.157Z,3.83
2019-03-10T14:39:35.445Z,5.03
2019-03-10T14:42:39.365Z,6.13
2019-03-10T14:45:16.697Z,7.03
2019-03-10T14:48:22.240Z,3.87
2019-03-10T14:50:53.887Z,2.33
2019-03-10T14:53:47.736Z,3.40
2019-03-10T14:56:21.758Z,4.53
2019-03-10T14:59:36.189Z,3.70
2019-03-10T15:02:15.026Z,3.07
2019-03-10T15:05:28.715Z,4.17
2019-03-10T15:08:11.094Z,2.27
2019-03-10T15:10:40.145Z,6.93
2019-03-10T15:13:13.367Z,6.13
2019-03-10T15:16:22.482Z,1.60
2019-03-10T15:18:53.050Z,2.10
2019-03-10T15:22:14.422Z,0.70
2019-03-10T15:24:48.298Z,1.00
2019-03-10T15:27:48.395Z,1.40
2019-03-10T15:30:23.359Z,1.70
2019-03-10T15:35:53.082Z,0.90
2019-03-10T15:38:23.994Z,1.73
2019-03-10T15:41:26.159Z,2.83
2019-03-10T15:43:53.439Z,1.93
2019-03-10T15:46:58.752Z,1.50
2019-03-10T15:49:43.215Z,1.70
2019-03-10T15:53:01.434Z,2.03
2019-03-10T15:55:42.437Z,2.93
2019-03-10T15:58:43.402Z,1.30
2019-03-10T16:01:12.969Z,2.13
2019-03-10T16:04:32.753Z,1.20
2019-03-10T16:07:16.256Z,1.37
2019-03-10T16:20:36.890Z,1.17
2019-03-10T16:23:11.259Z,1.10
2019-03-10T16:28:54.101Z,2.90
2019-03-10T16:34:15.319Z,3.17
2019-03-10T16:36:52.990Z,0.60
2019-03-10T16:39:29.976Z,0.67
2019-03-10T16:42:00.010Z,1.37
2019-03-10T16:45:03.202Z,0.83
2019-03-10T16:47:35.520Z,5.10
2019-03-10T16:50:11.384Z,1.13
2019-03-10T16:52:44.396Z,0.60
2019-03-10T16:55:27.936Z,0.93
2019-03-10T16:58:05.463Z,1.93
2019-03-10T17:00:40.309Z,0.73
2019-03-10T17:03:09.081Z,0.60
2019-03-10T17:05:39.071Z,0.77
2019-03-10T17:08:16.324Z,0.50
2019-03-10T17:10:48.335Z,0.60
2019-03-10T17:13:21.403Z,1.37
2019-03-10T17:15:53.296Z,0.40
2019-03-10T17:18:26.480Z,0.50
2019-03-10T17:20:57.549Z,0.90
2019-03-10T17:23:31.177Z,0.97
2019-03-10T17:26:16.558Z,0.50
2019-03-10T17:28:51.371Z,1.37
2019-03-10T17:31:20.851Z,0.80
2019-03-10T17:33:55.679Z,0.77
2019-03-10T17:36:33.264Z,0.60
2019-03-10T17:39:04.305Z,0.70
2019-03-10T17:41:39.146Z,0.83
2019-03-10T17:44:12.417Z,1.40
2019-03-10T17:46:48.262Z,2.97
2019-03-10T17:52:15.282Z,3.33
2019-03-10T17:54:58.500Z,1.60
2019-03-10T17:57:33.777Z,2.13
2019-03-10T18:00:05.563Z,3.07
2019-03-10T18:02:46.070Z,3.93
2019-03-10T18:05:20.399Z,3.23
2019-03-10T18:07:50.205Z,4.80
2019-03-10T18:10:28.843Z,4.77
2019-03-10T18:12:57.791Z,2.73
2019-03-10T18:15:27.984Z,3.07
2019-03-10T18:18:01.472Z,2.83
2019-03-10T18:20:35.199Z,2.97
2019-03-10T18:23:06.100Z,2.87
2019-03-10T18:25:35.811Z,2.53
2019-03-10T18:28:07.534Z,1.73
2019-03-10T18:30:50.568Z,4.00
2019-03-10T18:33:19.256Z,2.37
2019-03-10T18:35:59.659Z,1.43
2019-03-10T18:38:37.711Z,0.97
2019-03-10T18:41:14.818Z,2.83
2019-03-10T18:46:44.244Z,4.43
2019-03-10T18:49:23.109Z,2.43
2019-03-10T18:51:58.467Z,1.23
2019-03-10T18:54:42.661Z,1.53
2019-03-10T18:57:24.804Z,2.90
2019-03-10T19:00:07.674Z,1.87
2019-03-10T19:02:49.347Z,2.13
2019-03-10T19:05:21.716Z,1.57
2019-03-10T19:07:55.204Z,2.30
2019-03-10T19:10:39.279Z,2.20
2019-03-10T19:13:15.443Z,0.80
2019-03-10T19:15:45.208Z,2.50
2019-03-10T19:18:18.120Z,1.73
2019-03-10T19:21:03.717Z,0.60
2019-03-10T19:23:43.199Z,1.13
2019-03-10T19:26:20.659Z,1.10
2019-03-10T19:28:59.179Z,1.07
2019-03-10T19:31:33.129Z,1.83
2019-03-10T19:34:08.188Z,1.87
2019-03-10T19:36:39.577Z,1.87
2019-03-10T19:39:14.676Z,2.03
2019-03-10T19:41:46.397Z,5.87
2019-03-10T19:44:28.134Z,1.80
2019-03-10T19:46:57.266Z,2.20
2019-03-10T19:49:26.914Z,2.37
2019-03-10T19:52:02.444Z,0.87
2019-03-10T19:54:34.854Z,3.07
2019-03-10T19:57:16.964Z,2.07
2019-03-10T19:59:45.951Z,1.30
2019-03-10T20:02:15.967Z,1.30
2019-03-10T20:04:46.807Z,2.67
2019-03-10T20:07:24.271Z,1.00
2019-03-10T20:10:07.079Z,3.47
2019-03-10T20:12:33.329Z,4.63
2019-03-10T20:15:04.491Z,3.87
2019-03-10T20:17:39.567Z,4.17
2019-03-10T20:20:14.553Z,1.33
2019-03-10T20:22:52.707Z,2.27
2019-03-10T20:25:27.171Z,2.10
2019-03-10T20:28:00.942Z,2.80
2019-03-10T20:33:22.169Z,3.87
2019-03-10T20:35:56.973Z,2.00
2019-03-10T20:38:26.326Z,1.57
2019-03-10T20:41:05.638Z,5.73
2019-03-10T20:43:44.197Z,2.20
2019-03-10T20:46:22.846Z,3.10
2019-03-10T20:49:00.968Z,3.03
2019-03-10T20:51:41.203Z,7.17
2019-03-10T20:54:32.204Z,3.33
2019-03-10T20:57:01.727Z,7.10
2019-03-10T20:59:36.942Z,4.13
2019-03-10T21:02:13.079Z,4.63
2019-03-10T21:04:47.408Z,4.97
2019-03-10T21:07:24.702Z,5.60
2019-03-10T21:10:03.090Z,8.30
2019-03-10T21:12:43.234Z,7.00
2019-03-10T21:15:35.511Z,7.50
2019-03-10T21:18:06.285Z,6.33
2019-03-10T21:20:36.319Z,10.40
2019-03-10T21:23:09.644Z,5.13
2019-03-10T21:25:50.102Z,7.53
2019-03-10T21:28:21.219Z,5.87
2019-03-10T21:30:52.137Z,9.07
2019-03-10T21:33:23.794Z,8.13
2019-03-10T21:36:02.168Z,3.63
2019-03-10T21:38:34.743Z,10.93
2019-03-10T21:41:13.681Z,2.97
2019-03-10T21:43:38.489Z,5.77
2019-03-10T21:46:09.076Z,5.53
2019-03-10T21:48:42.824Z,9.10
2019-03-10T21:51:33.746Z,9.53
2019-03-10T21:53:56.545Z,7.13
2019-03-10T21:56:26.045Z,12.53
2019-03-10T21:59:02.204Z,14.83
2019-03-10T22:01:37.534Z,8.13
2019-03-10T22:04:11.822Z,5.03
2019-03-10T22:06:44.085Z,6.13
2019-03-10T22:09:17.146Z,7.03
2019-03-10T22:11:49.477Z,4.73
2019-03-10T22:14:19.795Z,8.33
2019-03-10T22:16:55.324Z,10.53
2019-03-10T22:19:31.293Z,6.03
2019-03-10T22:22:09.570Z,10.07
2019-03-10T22:24:41.656Z,5.57
2019-03-10T22:27:18.214Z,8.03
2019-03-10T22:29:52.334Z,6.80
2019-03-10T22:32:25.849Z,7.97
2019-03-10T22:34:55.089Z,7.50
2019-03-10T22:37:24.259Z,8.40
2019-03-10T22:39:53.340Z,5.87
2019-03-10T22:42:23.757Z,9.73
2019-03-10T22:44:53.192Z,7.47
2019-03-10T22:47:22.317Z,5.83
2019-03-10T22:49:57.233Z,7.50
2019-03-10T22:52:26.391Z,6.00
2019-03-10T22:54:57.078Z,12.20
2019-03-10T22:57:29.544Z,7.63
2019-03-10T23:00:00.939Z,10.27
2019-03-10T23:02:34.750Z,11.03
2019-03-10T23:05:07.207Z,8.03
2019-03-10T23:07:38.595Z,13.30
2019-03-10T23:10:13.549Z,6.73
2019-03-10T23:12:47.357Z,9.73
2019-03-10T23:15:20.803Z,14.07
2019-03-10T23:17:55.460Z,7.60
2019-03-10T23:20:27.360Z,9.43
2019-03-10T23:22:57.171Z,9.80
2019-03-10T23:25:33.727Z,10.27
2019-03-10T23:28:05.540Z,8.50
2019-03-10T23:30:35.193Z,12.77
2019-03-10T23:33:07.956Z,8.30
2019-03-10T23:35:36.931Z,9.83
2019-03-10T23:38:12.188Z,10.13
2019-03-10T23:40:43.029Z,8.47
2019-03-10T23:43:16.859Z,10.73
2019-03-10T23:45:49.300Z,9.33
2019-03-10T23:48:22.719Z,11.03
2019-03-10T23:50:53.179Z,13.83
2019-03-10T23:53:29.175Z,7.87
2019-03-10T23:56:03.421Z,11.33
2019-03-10T23:58:38.346Z,13.93
